IGO978 VOKN-VAPO
Flight info
| Callsign | IGO978 |
|---|---|
| Flight time | N/A |
| Altitude | 36000 |
| Route | IGNOR V86 MML W17 BBM/N0455F370 J104 AGELA/N0459F360 G208 AVKOR |
| Aircraft | A21N/M-SDE2E3FGHIRWXY/LB1 |
Departure
| Time | 2026-05-05 15:19 |
|---|---|
| Airport | Kannur International Airport (VOKN) |
Arrival
| Time | N/A |
|---|---|
| Airport | Pune International Airport (VAPO) |
| Time | Latitude | Longitude | Altitude | Speed | Heading |
|---|---|---|---|---|---|
| 2026-05-05 14:59 | 11.91522 | 75.54869 | 356 ft | 0 kts | 158° |
| 2026-05-05 15:08 | 11.91542 | 75.54861 | 364 ft | 4 kts | 158° |
| 2026-05-05 15:08 | 11.91567 | 75.54850 | 361 ft | 4 kts | 158° |
| 2026-05-05 15:08 | 11.91592 | 75.54840 | 363 ft | 5 kts | 158° |
| 2026-05-05 15:09 | 11.91606 | 75.54834 | 363 ft | 1 kts | 158° |
| 2026-05-05 15:12 | 11.91605 | 75.54834 | 364 ft | 1 kts | 159° |
| 2026-05-05 15:12 | 11.91594 | 75.54826 | 360 ft | 4 kts | 237° |
| 2026-05-05 15:12 | 11.91583 | 75.54795 | 359 ft | 6 kts | 256° |
| 2026-05-05 15:13 | 11.91575 | 75.54747 | 356 ft | 8 kts | 260° |
| 2026-05-05 15:13 | 11.91570 | 75.54685 | 358 ft | 10 kts | 295° |
| 2026-05-05 15:13 | 11.91603 | 75.54649 | 359 ft | 11 kts | 328° |
| 2026-05-05 15:13 | 11.91606 | 75.54574 | 357 ft | 13 kts | 230° |
| 2026-05-05 15:14 | 11.91562 | 75.54446 | 357 ft | 16 kts | 253° |
| 2026-05-05 15:14 | 11.91524 | 75.54337 | 360 ft | 17 kts | 248° |
| 2026-05-05 15:14 | 11.91480 | 75.54217 | 361 ft | 19 kts | 249° |
| 2026-05-05 15:14 | 11.91431 | 75.54088 | 357 ft | 20 kts | 249° |
| 2026-05-05 15:15 | 11.91380 | 75.53950 | 362 ft | 22 kts | 248° |
| 2026-05-05 15:15 | 11.91324 | 75.53802 | 362 ft | 23 kts | 249° |
| 2026-05-05 15:15 | 11.91285 | 75.53699 | 357 ft | 24 kts | 249° |
| 2026-05-05 15:15 | 11.91203 | 75.53479 | 359 ft | 26 kts | 249° |
| 2026-05-05 15:16 | 11.91159 | 75.53364 | 359 ft | 22 kts | 249° |
| 2026-05-05 15:16 | 11.91121 | 75.53226 | 356 ft | 13 kts | 280° |
| 2026-05-05 15:16 | 11.91191 | 75.53160 | 359 ft | 16 kts | 348° |
| 2026-05-05 15:16 | 11.91289 | 75.53206 | 365 ft | 17 kts | 53° |
| 2026-05-05 15:17 | 11.91315 | 75.53256 | 361 ft | 0 kts | 69° |
| 2026-05-05 15:18 | 11.91316 | 75.53257 | 361 ft | 1 kts | 69° |
| 2026-05-05 15:18 | 11.91330 | 75.53294 | 363 ft | 20 kts | 69° |
| 2026-05-05 15:19 | 11.91487 | 75.53709 | 361 ft | 102 kts | 71° |
| 2026-05-05 15:19 | 11.91813 | 75.54587 | 360 ft | 163 kts | 70° |
| 2026-05-05 15:19 | 11.92280 | 75.55702 | 823 ft | 175 kts | 64° |
| 2026-05-05 15:19 | 11.92803 | 75.56838 | 1438 ft | 179 kts | 70° |
| 2026-05-05 15:20 | 11.93154 | 75.58134 | 1929 ft | 199 kts | 69° |
| 2026-05-05 15:20 | 11.93883 | 75.59342 | 2393 ft | 205 kts | 35° |
| 2026-05-05 15:20 | 11.95211 | 75.59867 | 2842 ft | 212 kts | 1° |
| 2026-05-05 15:20 | 11.96667 | 75.59500 | 3206 ft | 226 kts | 327° |
| 2026-05-05 15:21 | 11.97873 | 75.58397 | 3551 ft | 241 kts | 313° |
| 2026-05-05 15:21 | 11.99009 | 75.57103 | 3861 ft | 254 kts | 313° |
| 2026-05-05 15:21 | 12.00221 | 75.55744 | 4456 ft | 264 kts | 313° |
| 2026-05-05 15:21 | 12.01482 | 75.54356 | 5282 ft | 268 kts | 314° |
| 2026-05-05 15:22 | 12.02767 | 75.52956 | 6117 ft | 272 kts | 314° |
| 2026-05-05 15:22 | 12.04074 | 75.51538 | 6887 ft | 276 kts | 315° |
| 2026-05-05 15:22 | 12.05840 | 75.49632 | 7906 ft | 281 kts | 315° |
| 2026-05-05 15:22 | 12.06753 | 75.48650 | 8447 ft | 284 kts | 316° |
| 2026-05-05 15:23 | 12.08118 | 75.47183 | 9252 ft | 287 kts | 316° |
| 2026-05-05 15:23 | 12.09486 | 75.45711 | 10037 ft | 292 kts | 316° |
| 2026-05-05 15:23 | 12.10924 | 75.44165 | 10452 ft | 311 kts | 316° |
| 2026-05-05 15:23 | 12.12473 | 75.42507 | 10758 ft | 332 kts | 316° |
| 2026-05-05 15:24 | 12.14120 | 75.40746 | 11067 ft | 352 kts | 316° |
| 2026-05-05 15:24 | 12.15829 | 75.38907 | 11638 ft | 361 kts | 315° |
| 2026-05-05 15:24 | 12.17567 | 75.37037 | 12352 ft | 365 kts | 315° |
| 2026-05-05 15:24 | 12.19324 | 75.35147 | 13069 ft | 369 kts | 315° |
| 2026-05-05 15:25 | 12.21101 | 75.33239 | 13778 ft | 373 kts | 315° |
| 2026-05-05 15:25 | 12.22931 | 75.31342 | 14401 ft | 376 kts | 320° |
| 2026-05-05 15:25 | 12.25007 | 75.29774 | 14979 ft | 378 kts | 330° |
| 2026-05-05 15:25 | 12.27291 | 75.28424 | 15545 ft | 382 kts | 332° |
| 2026-05-05 15:26 | 12.29630 | 75.27095 | 16099 ft | 386 kts | 332° |
| 2026-05-05 15:26 | 12.31989 | 75.25743 | 16635 ft | 391 kts | 331° |